createdAt,value
2022-12-20T00:01:25.234Z,25.90
2022-12-20T00:04:27.544Z,25.50
2022-12-20T00:07:29.403Z,26.00
2022-12-20T00:10:31.744Z,26.30
2022-12-20T00:13:34.049Z,25.90
2022-12-20T00:16:37.259Z,26.10
2022-12-20T00:19:39.164Z,26.30
2022-12-20T00:22:41.512Z,26.50
2022-12-20T00:25:43.387Z,26.40
2022-12-20T00:28:46.227Z,27.20
2022-12-20T00:31:48.220Z,26.50
2022-12-20T00:34:50.466Z,26.00
2022-12-20T00:37:52.397Z,26.00
2022-12-20T00:41:09.961Z,26.40
2022-12-20T00:44:11.975Z,26.20
2022-12-20T00:47:14.869Z,26.30
2022-12-20T00:50:16.928Z,26.60
2022-12-20T00:53:26.047Z,26.30
2022-12-20T00:56:28.432Z,26.60
2022-12-20T00:59:30.657Z,26.50
2022-12-20T01:02:32.760Z,26.60
2022-12-20T01:05:35.619Z,26.20
2022-12-20T01:08:37.731Z,25.90
2022-12-20T01:11:40.228Z,25.90
2022-12-20T01:14:42.195Z,26.20
2022-12-20T01:17:44.681Z,26.00
2022-12-20T01:20:46.542Z,26.10
2022-12-20T01:23:48.853Z,25.90
2022-12-20T01:26:50.775Z,25.70
2022-12-20T01:29:52.974Z,25.70
2022-12-20T01:32:54.846Z,26.20
2022-12-20T01:35:58.207Z,26.30
2022-12-20T01:39:13.263Z,25.80
2022-12-20T01:42:16.147Z,25.80
2022-12-20T01:45:28.253Z,26.00
2022-12-20T01:48:30.574Z,26.20
2022-12-20T01:51:35.923Z,26.00
2022-12-20T01:54:46.582Z,25.90
2022-12-20T01:57:55.369Z,26.00
2022-12-20T02:00:57.614Z,26.00
2022-12-20T02:03:59.533Z,25.70
2022-12-20T02:07:03.452Z,25.90
2022-12-20T02:10:07.292Z,25.90
2022-12-20T02:13:24.332Z,25.90
2022-12-20T02:16:29.708Z,25.50
2022-12-20T02:19:43.559Z,25.80
2022-12-20T02:23:19.109Z,25.90
2022-12-20T02:26:36.268Z,25.90
2022-12-20T02:30:08.224Z,25.70
2022-12-20T02:33:12.991Z,25.50
2022-12-20T02:36:18.537Z,25.50
2022-12-20T02:39:23.176Z,25.30
2022-12-20T02:42:26.886Z,25.30
2022-12-20T02:45:34.706Z,25.20
2022-12-20T02:48:38.533Z,25.10
2022-12-20T02:51:44.106Z,24.80
2022-12-20T02:54:46.395Z,24.60
2022-12-20T02:58:15.733Z,24.50
2022-12-20T03:01:23.427Z,24.60
2022-12-20T03:04:29.529Z,24.60
2022-12-20T03:07:34.198Z,25.10
2022-12-20T03:10:36.474Z,25.00
2022-12-20T03:13:38.431Z,25.10
2022-12-20T03:16:40.607Z,25.10
2022-12-20T03:19:42.498Z,24.80
2022-12-20T03:22:44.804Z,24.80
2022-12-20T03:25:46.687Z,24.70
2022-12-20T03:28:48.894Z,24.90
2022-12-20T03:31:52.131Z,24.90
2022-12-20T03:34:54.323Z,24.60
2022-12-20T03:37:56.592Z,24.50
2022-12-20T03:40:58.732Z,24.40
2022-12-20T03:44:00.724Z,24.40
2022-12-20T03:47:02.975Z,24.50
2022-12-20T03:50:06.589Z,24.40
2022-12-20T03:53:08.881Z,24.50
2022-12-20T03:56:10.955Z,24.60
2022-12-20T03:59:13.155Z,24.50
2022-12-20T04:02:15.325Z,24.60
2022-12-20T04:05:17.919Z,24.50
2022-12-20T04:08:20.068Z,24.30
2022-12-20T04:11:22.504Z,24.10
2022-12-20T04:14:24.372Z,24.50
2022-12-20T04:17:26.538Z,24.00
2022-12-20T04:20:28.415Z,23.90
2022-12-20T04:23:30.965Z,23.80
2022-12-20T04:26:33.127Z,23.80
2022-12-20T04:29:35.374Z,23.70
2022-12-20T04:32:38.803Z,23.60
2022-12-20T04:35:41.034Z,23.60
2022-12-20T04:38:42.960Z,23.80
2022-12-20T04:41:45.191Z,23.80
2022-12-20T04:44:47.250Z,23.80
2022-12-20T04:47:49.444Z,23.70
2022-12-20T04:50:52.038Z,23.80
2022-12-20T04:53:54.735Z,23.70
2022-12-20T04:56:56.637Z,23.70
2022-12-20T04:59:58.762Z,23.70
2022-12-20T05:03:01.041Z,23.90
2022-12-20T05:06:04.419Z,24.00
2022-12-20T05:09:06.356Z,23.70
2022-12-20T05:12:08.563Z,23.50
2022-12-20T05:15:12.007Z,23.50
2022-12-20T05:18:14.147Z,23.30
2022-12-20T05:21:34.616Z,23.60
2022-12-20T05:24:56.752Z,23.50
2022-12-20T05:27:58.970Z,23.60
2022-12-20T05:31:02.009Z,23.40
2022-12-20T05:34:03.958Z,23.40
2022-12-20T05:37:06.867Z,23.40
2022-12-20T05:40:09.667Z,23.40
2022-12-20T05:43:11.860Z,23.60
2022-12-20T05:46:13.942Z,23.50
2022-12-20T05:49:16.291Z,23.60
2022-12-20T05:52:18.293Z,23.50
2022-12-20T05:55:20.531Z,23.50
2022-12-20T05:58:22.571Z,23.30
2022-12-20T06:01:25.106Z,23.50
2022-12-20T06:04:27.373Z,23.50
2022-12-20T06:07:29.735Z,23.30
2022-12-20T06:10:32.484Z,23.40
2022-12-20T06:13:34.914Z,23.20
2022-12-20T06:16:37.074Z,23.40
2022-12-20T06:19:41.549Z,23.30
2022-12-20T06:22:43.575Z,23.60
2022-12-20T06:25:46.248Z,23.60
2022-12-20T06:28:52.370Z,23.40
2022-12-20T06:31:54.752Z,23.40
2022-12-20T06:34:56.710Z,23.30
2022-12-20T06:37:58.895Z,23.30
2022-12-20T06:41:00.893Z,23.30
2022-12-20T06:44:03.841Z,23.20
2022-12-20T06:47:05.746Z,23.30
2022-12-20T06:50:08.777Z,23.20
2022-12-20T06:53:10.680Z,23.10
2022-12-20T06:56:12.997Z,23.10
2022-12-20T06:59:15.379Z,23.20
2022-12-20T07:02:17.840Z,23.20
2022-12-20T07:05:19.912Z,23.00
2022-12-20T07:08:23.237Z,23.00
2022-12-20T07:11:25.217Z,22.90
2022-12-20T07:14:28.430Z,22.90
2022-12-20T07:17:30.337Z,22.80
2022-12-20T07:20:33.725Z,22.90
2022-12-20T07:23:35.915Z,22.80
2022-12-20T07:26:39.362Z,22.70
2022-12-20T07:29:42.108Z,22.80
2022-12-20T07:32:44.466Z,22.80
2022-12-20T07:35:50.943Z,22.90
2022-12-20T07:38:56.303Z,23.00
2022-12-20T07:41:58.447Z,23.20
2022-12-20T07:45:01.088Z,23.20
2022-12-20T07:48:11.150Z,23.20
2022-12-20T07:51:21.719Z,23.10
2022-12-20T07:54:31.166Z,23.40
2022-12-20T07:57:47.881Z,23.70
2022-12-20T08:00:50.401Z,23.70
2022-12-20T08:03:55.773Z,23.50
2022-12-20T08:06:59.896Z,23.30
2022-12-20T08:10:02.432Z,23.20
2022-12-20T08:13:06.237Z,23.10
2022-12-20T08:16:08.531Z,23.20
2022-12-20T08:19:10.813Z,23.00
2022-12-20T08:22:12.992Z,22.90
2022-12-20T08:25:14.972Z,22.90
2022-12-20T08:28:17.205Z,22.80
2022-12-20T08:31:19.239Z,22.90
2022-12-20T08:34:21.487Z,22.90
2022-12-20T08:37:23.410Z,22.90
2022-12-20T08:40:25.719Z,23.00
2022-12-20T08:43:27.890Z,23.00
2022-12-20T08:46:30.264Z,23.10
2022-12-20T08:49:32.511Z,23.10
2022-12-20T08:52:34.726Z,23.00
2022-12-20T08:55:36.636Z,23.00
2022-12-20T08:58:40.267Z,22.80
2022-12-20T09:01:42.349Z,22.80
2022-12-20T09:04:44.683Z,22.90
2022-12-20T09:07:46.825Z,23.10
2022-12-20T09:10:49.120Z,22.80
2022-12-20T09:13:54.653Z,22.90
2022-12-20T09:16:56.841Z,23.10
2022-12-20T09:19:58.782Z,23.10
2022-12-20T09:23:01.274Z,23.10
2022-12-20T09:26:11.115Z,23.10
2022-12-20T09:29:13.388Z,23.20
2022-12-20T09:32:15.504Z,22.80
2022-12-20T09:35:22.831Z,22.50
2022-12-20T09:38:26.396Z,22.60
2022-12-20T09:41:38.578Z,22.60
2022-12-20T09:44:42.356Z,22.90
2022-12-20T09:47:44.625Z,22.50
2022-12-20T09:51:15.654Z,22.60
2022-12-20T09:54:37.860Z,22.60
2022-12-20T09:57:54.562Z,22.40
2022-12-20T10:00:58.111Z,22.40
2022-12-20T10:04:07.072Z,22.20
2022-12-20T10:07:54.990Z,22.30
2022-12-20T10:11:10.052Z,22.20
2022-12-20T10:14:30.816Z,22.20
2022-12-20T10:18:34.421Z,22.30
2022-12-20T10:21:55.519Z,22.50
2022-12-20T10:25:16.238Z,22.40
2022-12-20T10:28:31.344Z,22.20
2022-12-20T10:31:35.077Z,22.20
2022-12-20T10:34:41.093Z,22.40
2022-12-20T10:38:08.336Z,22.20
2022-12-20T10:41:22.748Z,22.30
2022-12-20T10:44:27.194Z,22.50
2022-12-20T10:47:41.810Z,22.70
2022-12-20T10:50:43.956Z,23.00
2022-12-20T10:53:57.849Z,22.90
2022-12-20T10:57:02.677Z,23.20
2022-12-20T11:00:09.049Z,22.90
2022-12-20T11:03:13.377Z,22.80
2022-12-20T11:06:17.864Z,22.90
2022-12-20T11:09:24.533Z,23.10
2022-12-20T11:12:26.992Z,22.80
2022-12-20T11:15:34.705Z,22.90
2022-12-20T11:19:00.603Z,23.00
2022-12-20T11:22:11.937Z,23.00
2022-12-20T11:25:41.890Z,23.00
2022-12-20T11:28:57.529Z,23.00
2022-12-20T11:32:27.904Z,23.10
2022-12-20T11:35:55.028Z,23.10
2022-12-20T11:39:27.795Z,23.80
2022-12-20T11:42:58.753Z,23.50
2022-12-20T11:46:33.516Z,23.50
2022-12-20T11:49:38.713Z,23.50
2022-12-20T11:53:00.232Z,23.30
2022-12-20T11:56:12.446Z,23.50
2022-12-20T11:59:42.863Z,23.40
2022-12-20T12:02:57.984Z,23.10
2022-12-20T12:06:17.989Z,23.00
2022-12-20T12:09:42.324Z,23.10
2022-12-20T12:12:47.792Z,23.00
2022-12-20T12:16:02.806Z,23.20
2022-12-20T12:19:10.476Z,23.10
2022-12-20T12:22:20.183Z,23.40
2022-12-20T12:25:22.678Z,23.60
2022-12-20T12:28:24.829Z,23.60
2022-12-20T12:31:34.718Z,23.80
2022-12-20T12:34:57.319Z,23.70
2022-12-20T12:38:11.376Z,23.90
2022-12-20T12:41:27.249Z,23.80
2022-12-20T12:44:43.244Z,23.90
2022-12-20T12:48:01.059Z,23.80
2022-12-20T12:51:04.599Z,23.70
2022-12-20T12:54:09.396Z,23.90
2022-12-20T12:57:15.920Z,23.60
2022-12-20T13:00:51.954Z,23.70
2022-12-20T13:03:54.316Z,23.80
2022-12-20T13:07:27.569Z,23.90
2022-12-20T13:10:31.415Z,24.10
2022-12-20T13:13:33.677Z,23.90
2022-12-20T13:17:10.274Z,24.00
2022-12-20T13:19:59.788Z,23.90
2022-12-20T13:23:08.068Z,23.90
2022-12-20T13:26:48.138Z,23.80
2022-12-20T13:30:11.989Z,23.70
2022-12-20T13:33:23.460Z,23.40
2022-12-20T13:36:37.468Z,23.40
2022-12-20T13:39:39.998Z,23.50
2022-12-20T13:42:43.472Z,23.70
2022-12-20T13:45:56.011Z,23.50
2022-12-20T13:49:03.838Z,23.30
2022-12-20T13:52:11.805Z,23.50
2022-12-20T13:55:39.122Z,23.40
2022-12-20T13:58:43.600Z,23.50
2022-12-20T14:01:54.525Z,23.80
2022-12-20T14:05:19.549Z,24.10
2022-12-20T14:08:24.650Z,23.80
2022-12-20T14:11:27.601Z,23.90
2022-12-20T14:14:29.856Z,23.90
2022-12-20T14:17:33.441Z,24.00
2022-12-20T14:20:39.873Z,24.00
2022-12-20T14:23:45.572Z,23.80
2022-12-20T14:26:51.523Z,23.90
2022-12-20T14:29:53.517Z,23.60
2022-12-20T14:32:56.961Z,23.40
2022-12-20T14:36:16.841Z,23.40
2022-12-20T14:39:31.449Z,23.20
2022-12-20T14:42:36.235Z,23.10
2022-12-20T14:45:38.670Z,23.10
2022-12-20T14:48:40.774Z,23.10
2022-12-20T14:51:43.373Z,23.20
2022-12-20T14:55:07.782Z,23.20
2022-12-20T14:58:37.003Z,23.30
2022-12-20T15:01:43.890Z,23.50
2022-12-20T15:04:46.930Z,23.40
2022-12-20T15:07:49.344Z,23.40
2022-12-20T15:11:10.427Z,23.40
2022-12-20T15:14:37.297Z,23.40
2022-12-20T15:17:39.734Z,23.40
2022-12-20T15:20:47.109Z,23.30
2022-12-20T15:23:52.086Z,23.40
2022-12-20T15:26:54.483Z,23.40
2022-12-20T15:29:59.096Z,23.30
2022-12-20T15:33:01.137Z,23.20
2022-12-20T15:36:07.302Z,23.20
2022-12-20T15:39:13.266Z,23.30
2022-12-20T15:42:18.199Z,23.20
2022-12-20T15:45:20.797Z,23.30
2022-12-20T15:48:23.921Z,23.20
2022-12-20T15:51:34.771Z,23.10
2022-12-20T15:54:37.524Z,23.30
2022-12-20T15:57:39.658Z,23.30
2022-12-20T16:00:42.474Z,23.40
2022-12-20T16:03:44.854Z,23.20
2022-12-20T16:06:49.252Z,23.40
2022-12-20T16:09:51.606Z,23.40
2022-12-20T16:12:55.236Z,23.30
2022-12-20T16:15:57.351Z,23.20
2022-12-20T16:19:01.103Z,23.40
2022-12-20T16:22:03.782Z,23.50
2022-12-20T16:25:06.505Z,23.60
2022-12-20T16:28:08.529Z,23.60
2022-12-20T16:31:21.636Z,23.50
2022-12-20T16:34:23.743Z,23.50
2022-12-20T16:37:25.955Z,23.40
2022-12-20T16:40:31.692Z,23.30
2022-12-20T16:43:38.659Z,23.20
2022-12-20T16:46:41.604Z,23.20
2022-12-20T16:49:51.821Z,23.20
2022-12-20T16:52:54.669Z,23.30
2022-12-20T16:55:56.925Z,23.30
2022-12-20T16:59:18.636Z,23.50
2022-12-20T17:02:27.479Z,23.50
2022-12-20T17:05:32.567Z,23.50
2022-12-20T17:11:54.706Z,23.50
2022-12-20T17:14:57.024Z,23.70
2022-12-20T17:17:59.027Z,23.80
2022-12-20T17:21:03.211Z,23.90
2022-12-20T17:24:06.639Z,24.40
2022-12-20T17:27:10.712Z,23.80
2022-12-20T17:30:13.090Z,24.00
2022-12-20T17:33:16.425Z,24.20
2022-12-20T17:36:18.673Z,24.00
2022-12-20T17:39:21.957Z,23.80
2022-12-20T17:42:30.629Z,24.00
2022-12-20T17:45:36.281Z,23.90
2022-12-20T17:48:43.727Z,23.80
2022-12-20T17:51:46.932Z,23.60
2022-12-20T17:54:49.027Z,23.60
2022-12-20T17:57:52.966Z,23.70
2022-12-20T18:00:55.163Z,23.70
2022-12-20T18:04:04.867Z,23.80
2022-12-20T18:07:08.346Z,23.80
2022-12-20T18:10:10.891Z,23.80
2022-12-20T18:13:12.858Z,23.60
2022-12-20T18:16:17.790Z,23.30
2022-12-20T18:19:20.618Z,23.30
2022-12-20T18:22:23.161Z,23.50
2022-12-20T18:25:25.287Z,23.10
2022-12-20T18:28:27.557Z,23.00
2022-12-20T18:31:32.578Z,23.00
2022-12-20T18:34:34.974Z,23.20
2022-12-20T18:37:37.319Z,23.10
2022-12-20T18:40:45.033Z,23.20
2022-12-20T18:43:47.081Z,23.40
2022-12-20T18:46:49.574Z,23.30
2022-12-20T18:49:51.621Z,23.50
2022-12-20T18:52:59.423Z,23.40
2022-12-20T18:56:05.206Z,23.50
2022-12-20T18:59:11.867Z,23.70
2022-12-20T19:02:15.044Z,23.40
2022-12-20T19:05:17.485Z,23.60
2022-12-20T19:08:19.679Z,23.70
2022-12-20T19:11:25.600Z,23.80
2022-12-20T19:14:27.933Z,23.60
2022-12-20T19:17:30.527Z,23.40
2022-12-20T19:20:35.986Z,23.40
2022-12-20T19:23:40.080Z,23.50
2022-12-20T19:26:42.200Z,23.90
2022-12-20T19:29:44.579Z,23.80
2022-12-20T19:32:46.962Z,23.70
2022-12-20T19:35:57.323Z,23.40
2022-12-20T19:39:01.140Z,23.30
2022-12-20T19:42:24.080Z,23.20
2022-12-20T19:45:26.387Z,23.00
2022-12-20T19:48:28.876Z,22.90
2022-12-20T19:51:32.710Z,23.10
2022-12-20T19:54:35.552Z,23.00
2022-12-20T19:57:38.195Z,23.30
2022-12-20T20:00:40.415Z,23.10
2022-12-20T20:03:42.660Z,23.00
2022-12-20T20:06:45.024Z,22.80
2022-12-20T20:09:47.092Z,22.80
2022-12-20T20:12:49.993Z,22.70
2022-12-20T20:16:04.570Z,23.40
2022-12-20T20:19:07.573Z,22.70
2022-12-20T20:22:10.778Z,22.60
2022-12-20T20:25:13.085Z,22.50
2022-12-20T20:28:15.354Z,22.50
2022-12-20T20:31:19.238Z,22.70
2022-12-20T20:34:21.420Z,23.00
2022-12-20T20:37:23.769Z,22.90
2022-12-20T20:40:26.264Z,22.90
2022-12-20T20:43:29.821Z,22.90
2022-12-20T20:46:32.170Z,22.90
2022-12-20T20:49:34.454Z,22.90
2022-12-20T20:52:36.583Z,23.70
2022-12-20T20:55:39.862Z,23.10
2022-12-20T20:58:42.475Z,23.30
2022-12-20T21:01:45.141Z,23.40
2022-12-20T21:05:16.649Z,23.30
2022-12-20T21:08:10.156Z,23.40
2022-12-20T21:11:12.943Z,23.60
2022-12-20T21:14:16.789Z,23.50
2022-12-20T21:17:19.671Z,23.40
2022-12-20T21:20:25.949Z,23.40
2022-12-20T21:23:28.600Z,23.60
2022-12-20T21:26:31.044Z,23.60
2022-12-20T21:29:33.200Z,23.60
2022-12-20T21:32:35.481Z,23.60
2022-12-20T21:35:37.523Z,23.50
2022-12-20T21:38:40.706Z,23.50
2022-12-20T21:41:43.008Z,23.40
2022-12-20T21:44:45.312Z,23.50
2022-12-20T21:47:47.319Z,23.60
2022-12-20T21:51:10.991Z,23.60
2022-12-20T21:54:13.227Z,23.50
2022-12-20T21:57:15.501Z,23.60
2022-12-20T22:00:19.809Z,23.40
2022-12-20T22:03:23.454Z,23.40
2022-12-20T22:06:26.161Z,23.30
2022-12-20T22:09:28.504Z,23.40
2022-12-20T22:12:30.739Z,23.20
2022-12-20T22:15:33.344Z,23.20
2022-12-20T22:18:36.135Z,23.10
2022-12-20T22:21:38.426Z,23.00
2022-12-20T22:24:40.571Z,23.20
2022-12-20T22:27:42.861Z,23.00
2022-12-20T22:30:45.098Z,23.00
2022-12-20T22:33:47.514Z,22.90
2022-12-20T22:36:49.586Z,22.90
2022-12-20T22:39:51.818Z,22.90
2022-12-20T22:42:55.016Z,23.20
2022-12-20T22:46:01.714Z,22.90
2022-12-20T22:49:04.055Z,23.00
2022-12-20T22:52:07.955Z,22.90
2022-12-20T22:55:10.295Z,22.80
2022-12-20T22:58:12.593Z,22.70
2022-12-20T23:01:15.905Z,22.80
2022-12-20T23:04:18.199Z,22.70
2022-12-20T23:07:21.316Z,22.70
2022-12-20T23:10:42.300Z,22.80
2022-12-20T23:14:03.415Z,23.00
2022-12-20T23:17:07.524Z,23.10
2022-12-20T23:20:28.881Z,23.10
2022-12-20T23:23:32.306Z,23.00
2022-12-20T23:26:36.095Z,23.10
2022-12-20T23:29:38.381Z,23.00
2022-12-20T23:32:44.341Z,23.10
2022-12-20T23:35:56.672Z,23.10
2022-12-20T23:38:58.799Z,22.90
2022-12-20T23:42:01.333Z,23.30
2022-12-20T23:45:03.710Z,22.80
2022-12-20T23:48:06.496Z,22.80
2022-12-20T23:51:09.092Z,23.00
2022-12-20T23:54:11.485Z,23.00
2022-12-20T23:57:14.022Z,22.90
